Aérodrome :
LOGIN :

S'inscrire | Disclaimer

   EN    FR    IT 

 










Légende :    VFR   VFR Marginal   IFR   IFR Intensif   IFR Très Intensif
Visi : 
Plafond : 
>= 8 km
>= 3000ft
5 à 8 km
1000 à 3000 ft
1500m à 5 km
500 à 1000 ft
800 à 1500m
200 à 500 ft
< 800m
< 200 ft
Symboles :   Orages  Brouillard  Fortes neiges  Fortes précipitations  Vent > 20 kt
SIGMETs :   Divers  Orages  Givrage  Turbulence  Onde Orograph.  Cendres Volcan.






- Altitude de l'aérodrome : 65 ft
- Code IATA : PIK


EGPK - Glasgow Prestwick

DERNIER METAR :
  • 171220Z 23021KT 7000 -RA FEW014 SCT027 08/04 Q0997

METARs EXPIRÉS :
  • 171150Z 21017KT 9999 FEW014 SCT027 08/04 Q0996
  • 171120Z 22019KT 9999 -SHRA FEW014 SCT027 08/04 Q0995
  • 171050Z 22016KT 9999 FEW014 SCT023 08/05 Q0995
  • 171020Z 21018KT 9999 FEW014 SCT023 08/05 Q0994
  • 170950Z 22017KT 9999 -SHRA FEW014 SCT025 BKN033 08/05 Q0994

TAF TAF EGPK
Valide du 17 à 12h jusqu'au 18 à 12h UTC


171058Z 1712/1812 21019KT 9999 SCT025
TEMPO 1712/1812 23025G35KT 6000 SHRA BKN014
PROB30
TEMPO 1717/1721 3000 +SHRA BKN009CB



MET'MAP, la Météo Aéronautique d'un coup d'oeil ! - Copyright ORBIFLY Décembre 2007 - Disclaimer

ORBIFLY MET'MAP TEAM :

Programmation & Développement : Alexandra Zaïnal
Sur une idée originale de : Baudouin d'Aumeries
Assistance à la programmation : Marc-Olivier Méhu
Soutien technique & logistique : Manuel Goepfert

Contact : metmap@orbifly.com




SOURCES & CREDITS :

   NOAA